createdAt,value
2023-03-13T00:01:14.295Z,50.90
2023-03-13T00:03:44.030Z,50.80
2023-03-13T00:06:12.868Z,50.90
2023-03-13T00:08:41.226Z,50.80
2023-03-13T00:11:11.889Z,50.90
2023-03-13T00:13:40.243Z,51.00
2023-03-13T00:16:10.783Z,51.10
2023-03-13T00:18:40.076Z,51.50
2023-03-13T00:21:10.576Z,52.00
2023-03-13T00:23:39.648Z,52.00
2023-03-13T00:26:09.874Z,52.20
2023-03-13T00:28:39.594Z,52.20
2023-03-13T00:31:09.629Z,52.10
2023-03-13T00:33:39.252Z,52.30
2023-03-13T00:36:10.518Z,52.20
2023-03-13T00:38:38.950Z,52.10
2023-03-13T00:41:12.010Z,52.10
2023-03-13T00:43:41.683Z,52.10
2023-03-13T00:46:10.055Z,52.20
2023-03-13T00:48:39.697Z,51.90
2023-03-13T00:51:10.229Z,51.90
2023-03-13T00:53:38.909Z,51.90
2023-03-13T00:56:10.137Z,52.10
2023-03-13T00:58:40.587Z,52.00
2023-03-13T01:01:10.509Z,52.10
2023-03-13T01:03:39.581Z,51.80
2023-03-13T01:06:12.355Z,52.10
2023-03-13T01:08:40.957Z,52.00
2023-03-13T01:11:10.839Z,51.90
2023-03-13T01:13:39.766Z,51.90
2023-03-13T01:16:10.854Z,51.60
2023-03-13T01:18:41.167Z,51.60
2023-03-13T01:21:13.700Z,51.60
2023-03-13T01:23:42.120Z,51.90
2023-03-13T01:26:11.423Z,53.00
2023-03-13T01:28:40.344Z,55.20
2023-03-13T01:31:15.787Z,55.20
2023-03-13T01:33:44.044Z,56.10
2023-03-13T01:36:14.116Z,56.60
2023-03-13T01:38:42.795Z,57.90
2023-03-13T01:41:13.525Z,58.80
2023-03-13T01:43:44.886Z,59.90
2023-03-13T01:46:16.463Z,62.20
2023-03-13T01:49:17.744Z,62.30
2023-03-13T01:51:59.384Z,62.70
2023-03-13T01:54:33.698Z,63.50
2023-03-13T01:57:05.964Z,65.00
2023-03-13T01:59:39.447Z,65.80
2023-03-13T02:02:09.020Z,67.00
2023-03-13T02:04:40.490Z,67.90
2023-03-13T02:07:16.431Z,70.20
2023-03-13T02:09:49.426Z,70.80
2023-03-13T02:12:20.926Z,71.50
2023-03-13T02:14:51.676Z,70.30
2023-03-13T02:17:20.131Z,70.90
2023-03-13T02:19:51.903Z,71.40
2023-03-13T02:22:30.483Z,71.60
2023-03-13T02:25:10.238Z,71.20
2023-03-13T02:27:41.181Z,71.10
2023-03-13T02:30:11.193Z,70.70
2023-03-13T02:32:40.366Z,70.60
2023-03-13T02:35:10.971Z,70.50
2023-03-13T02:37:41.821Z,69.80
2023-03-13T02:40:19.156Z,69.90
2023-03-13T02:42:49.648Z,69.60
2023-03-13T02:45:19.173Z,69.00
2023-03-13T02:47:48.064Z,68.90
2023-03-13T02:50:17.013Z,68.20
2023-03-13T02:52:47.720Z,67.60
2023-03-13T02:55:22.562Z,67.10
2023-03-13T02:57:52.751Z,67.50
2023-03-13T03:00:26.741Z,67.10
2023-03-13T03:02:56.470Z,67.10
2023-03-13T03:05:25.028Z,67.40
2023-03-13T03:07:53.206Z,66.50
2023-03-13T03:10:21.531Z,66.40
2023-03-13T03:12:50.010Z,66.20
2023-03-13T03:15:19.958Z,66.30
2023-03-13T03:17:49.764Z,66.50
2023-03-13T03:20:18.076Z,66.60
2023-03-13T03:22:46.219Z,66.60
2023-03-13T03:25:14.479Z,66.90
2023-03-13T03:27:42.669Z,66.90
2023-03-13T03:30:12.284Z,66.60
2023-03-13T03:32:42.710Z,66.00
2023-03-13T03:35:11.073Z,65.60
2023-03-13T03:37:39.300Z,65.50
2023-03-13T03:40:09.331Z,64.40
2023-03-13T03:42:37.461Z,64.40
2023-03-13T03:45:06.257Z,64.20
2023-03-13T03:47:34.411Z,64.30
2023-03-13T03:50:04.775Z,64.60
2023-03-13T03:52:40.030Z,64.70
2023-03-13T03:55:09.000Z,65.00
2023-03-13T03:57:37.157Z,65.20
2023-03-13T04:00:14.256Z,65.40
2023-03-13T04:02:48.033Z,65.50
2023-03-13T04:05:17.950Z,65.80
2023-03-13T04:07:46.177Z,66.10
2023-03-13T04:10:14.835Z,66.40
2023-03-13T04:12:46.450Z,66.50
2023-03-13T04:15:14.757Z,66.80
2023-03-13T04:17:43.345Z,67.30
2023-03-13T04:20:14.315Z,67.50
2023-03-13T04:22:44.629Z,67.70
2023-03-13T04:25:13.542Z,67.80
2023-03-13T04:27:41.787Z,67.90
2023-03-13T04:30:11.726Z,67.70
2023-03-13T04:32:59.923Z,67.90
2023-03-13T04:35:48.530Z,67.90
2023-03-13T04:38:27.412Z,67.80
2023-03-13T04:41:18.619Z,67.90
2023-03-13T04:44:01.458Z,67.70
2023-03-13T04:46:52.589Z,67.80
2023-03-13T04:49:46.784Z,68.80
2023-03-13T04:52:33.561Z,68.50
2023-03-13T04:55:21.442Z,70.10
2023-03-13T04:58:06.881Z,70.60
2023-03-13T05:00:48.261Z,71.20
2023-03-13T05:03:18.992Z,72.80
2023-03-13T05:05:54.256Z,74.10
2023-03-13T05:08:42.756Z,74.60
2023-03-13T05:11:32.118Z,74.80
2023-03-13T05:14:00.544Z,74.80
2023-03-13T05:16:42.239Z,74.90
2023-03-13T05:19:30.616Z,76.10
2023-03-13T05:22:09.065Z,77.70
2023-03-13T05:25:07.076Z,77.70
2023-03-13T05:27:54.678Z,78.30
2023-03-13T05:30:45.805Z,78.30
2023-03-13T05:33:43.387Z,79.30
2023-03-13T05:36:30.280Z,79.40
2023-03-13T05:38:58.590Z,79.10
2023-03-13T05:41:50.737Z,79.10
2023-03-13T05:44:41.374Z,79.40
2023-03-13T05:47:32.631Z,79.30
2023-03-13T05:50:12.301Z,79.40
2023-03-13T05:53:00.673Z,79.20
2023-03-13T05:55:43.124Z,79.40
2023-03-13T05:58:30.493Z,79.10
2023-03-13T06:01:15.516Z,79.20
2023-03-13T06:03:53.693Z,78.80
2023-03-13T06:06:22.346Z,78.90
2023-03-13T06:08:53.773Z,78.80
2023-03-13T06:11:23.729Z,78.80
2023-03-13T06:13:53.110Z,78.80
2023-03-13T06:16:31.402Z,78.50
2023-03-13T06:19:12.904Z,78.40
2023-03-13T06:21:41.345Z,78.20
2023-03-13T06:24:09.534Z,78.30
2023-03-13T06:26:37.696Z,78.30
2023-03-13T06:29:05.812Z,78.40
2023-03-13T06:31:35.378Z,79.00
2023-03-13T06:34:03.792Z,78.30
2023-03-13T06:36:31.964Z,77.90
2023-03-13T06:39:00.270Z,77.90
2023-03-13T06:41:28.831Z,77.60
2023-03-13T06:43:56.987Z,76.90
2023-03-13T06:46:26.123Z,76.40
2023-03-13T06:48:55.868Z,76.20
2023-03-13T06:51:26.282Z,75.10
2023-03-13T06:53:54.414Z,74.70
2023-03-13T06:56:22.797Z,74.00
2023-03-13T06:58:51.596Z,74.10
2023-03-13T07:01:20.075Z,74.10
2023-03-13T07:03:48.852Z,73.80
2023-03-13T07:06:19.099Z,73.40
2023-03-13T07:08:47.548Z,73.10
2023-03-13T07:11:17.709Z,72.90
2023-03-13T07:13:45.909Z,72.30
2023-03-13T07:16:14.904Z,72.10
2023-03-13T07:18:44.966Z,72.00
2023-03-13T07:21:14.356Z,71.60
2023-03-13T07:23:43.858Z,71.80
2023-03-13T07:26:14.447Z,71.60
2023-03-13T07:28:42.920Z,71.50
2023-03-13T07:31:14.577Z,70.90
2023-03-13T07:33:44.895Z,71.20
2023-03-13T07:36:13.877Z,70.80
2023-03-13T07:38:44.306Z,70.80
2023-03-13T07:41:14.302Z,70.90
2023-03-13T07:43:42.847Z,71.00
2023-03-13T07:46:14.083Z,69.90
2023-03-13T07:48:44.122Z,69.60
2023-03-13T07:51:15.064Z,69.10
2023-03-13T07:53:44.797Z,68.90
2023-03-13T07:56:15.343Z,68.60
2023-03-13T07:58:44.573Z,68.90
2023-03-13T08:01:14.292Z,68.20
2023-03-13T08:03:42.423Z,68.00
2023-03-13T08:06:12.926Z,67.50
2023-03-13T08:08:41.684Z,67.70
2023-03-13T08:11:13.314Z,67.10
2023-03-13T08:13:42.345Z,66.80
2023-03-13T08:16:12.224Z,66.60
2023-03-13T08:18:41.956Z,66.60
2023-03-13T08:21:12.888Z,67.40
2023-03-13T08:23:41.543Z,67.40
2023-03-13T08:26:13.120Z,66.80
2023-03-13T08:28:42.227Z,67.10
2023-03-13T08:31:12.676Z,66.30
2023-03-13T08:33:41.633Z,66.40
2023-03-13T08:36:15.443Z,66.40
2023-03-13T08:38:45.931Z,66.40
2023-03-13T08:41:17.293Z,66.00
2023-03-13T08:43:46.182Z,65.30
2023-03-13T08:46:14.984Z,66.30
2023-03-13T08:48:43.397Z,65.30
2023-03-13T08:51:13.334Z,65.70
2023-03-13T08:53:43.000Z,65.10
2023-03-13T08:56:12.178Z,63.90
2023-03-13T08:58:42.065Z,63.60
2023-03-13T09:01:12.868Z,63.00
2023-03-13T09:03:41.406Z,62.30
2023-03-13T09:06:10.497Z,62.90
2023-03-13T09:08:39.474Z,62.80
2023-03-13T09:11:09.439Z,61.10
2023-03-13T09:13:41.929Z,59.70
2023-03-13T09:16:11.744Z,61.60
2023-03-13T09:18:40.228Z,60.00
2023-03-13T09:21:10.366Z,59.50
2023-03-13T09:23:38.404Z,58.50
2023-03-13T09:26:06.734Z,57.30
2023-03-13T09:28:36.028Z,56.30
2023-03-13T09:31:09.802Z,55.50
2023-03-13T09:33:38.112Z,54.40
2023-03-13T09:36:07.033Z,53.80
2023-03-13T09:38:35.577Z,53.00
2023-03-13T09:41:12.928Z,53.20
2023-03-13T09:43:47.140Z,51.50
2023-03-13T09:46:20.996Z,52.40
2023-03-13T09:48:52.303Z,52.10
2023-03-13T09:51:25.869Z,51.70
2023-03-13T09:53:59.025Z,51.50
2023-03-13T09:56:32.635Z,51.10
2023-03-13T09:59:09.274Z,52.20
2023-03-13T10:01:42.240Z,51.60
2023-03-13T10:04:25.237Z,52.10
2023-03-13T10:06:54.286Z,51.80
2023-03-13T10:09:28.772Z,52.20
2023-03-13T10:12:03.303Z,52.60
2023-03-13T10:14:35.702Z,51.40
2023-03-13T10:17:10.798Z,50.10
2023-03-13T10:19:43.571Z,50.30
2023-03-13T10:22:15.735Z,48.30
2023-03-13T10:24:50.518Z,50.20
2023-03-13T10:27:19.260Z,49.40
2023-03-13T10:29:48.697Z,49.00
2023-03-13T10:32:19.958Z,49.80
2023-03-13T10:34:53.556Z,49.40
2023-03-13T10:37:24.278Z,49.30
2023-03-13T10:39:52.703Z,49.90
2023-03-13T10:42:27.769Z,50.30
2023-03-13T10:45:04.965Z,49.40
2023-03-13T10:47:37.105Z,50.20
2023-03-13T10:50:06.422Z,48.90
2023-03-13T10:52:42.893Z,48.90
2023-03-13T10:55:13.637Z,47.70
2023-03-13T10:57:44.925Z,49.20
2023-03-13T11:00:35.457Z,48.30
2023-03-13T11:03:08.455Z,47.10
2023-03-13T11:05:42.660Z,45.10
2023-03-13T11:08:25.463Z,45.40
2023-03-13T11:10:59.532Z,42.70
2023-03-13T11:13:45.440Z,41.70
2023-03-13T11:16:22.120Z,42.10
2023-03-13T11:19:34.037Z,42.10
2023-03-13T11:22:26.523Z,40.70
2023-03-13T11:25:04.332Z,42.30
2023-03-13T11:27:37.698Z,41.60
2023-03-13T11:30:29.563Z,39.90
2023-03-13T11:33:01.702Z,40.00
2023-03-13T11:35:40.852Z,38.90
2023-03-13T11:38:14.250Z,40.10
2023-03-13T11:40:50.015Z,39.80
2023-03-13T11:43:34.045Z,37.90
2023-03-13T11:46:19.983Z,37.30
2023-03-13T11:49:21.406Z,37.70
2023-03-13T11:52:14.763Z,38.80
2023-03-13T11:55:02.286Z,38.00
2023-03-13T11:57:35.279Z,37.80
2023-03-13T12:00:21.703Z,37.20
2023-03-13T12:02:54.537Z,38.10
2023-03-13T12:05:23.950Z,37.20
2023-03-13T12:07:58.232Z,37.00
2023-03-13T12:10:31.086Z,36.40
2023-03-13T12:13:04.867Z,35.70
2023-03-13T12:15:39.026Z,36.20
2023-03-13T12:18:16.121Z,35.10
2023-03-13T12:20:50.153Z,35.30
2023-03-13T12:23:21.628Z,35.50
2023-03-13T12:25:55.490Z,35.00
2023-03-13T12:28:30.951Z,34.60
2023-03-13T12:31:05.547Z,34.50
2023-03-13T12:33:38.180Z,34.10
2023-03-13T12:36:12.566Z,34.60
2023-03-13T12:38:47.546Z,34.90
2023-03-13T12:41:26.707Z,33.30
2023-03-13T12:44:11.504Z,33.30
2023-03-13T12:46:45.270Z,33.20
2023-03-13T12:49:54.977Z,32.30
2023-03-13T12:52:55.564Z,33.00
2023-03-13T12:55:56.304Z,33.30
2023-03-13T12:58:41.927Z,32.40
2023-03-13T13:01:18.122Z,33.10
2023-03-13T13:03:54.110Z,33.40
2023-03-13T13:06:22.731Z,33.30
2023-03-13T13:09:09.208Z,32.60
2023-03-13T13:11:47.838Z,32.80
2023-03-13T13:14:52.347Z,33.20
2023-03-13T13:17:35.340Z,33.10
2023-03-13T13:20:32.030Z,33.30
2023-03-13T13:23:21.507Z,32.60
2023-03-13T13:25:50.465Z,34.00
2023-03-13T13:28:34.629Z,34.00
2023-03-13T13:31:03.153Z,33.70
2023-03-13T13:33:42.063Z,33.20
2023-03-13T13:36:32.215Z,33.00
2023-03-13T13:39:00.667Z,32.70
2023-03-13T13:41:38.046Z,33.00
2023-03-13T13:44:28.061Z,32.40
2023-03-13T13:46:58.885Z,31.30
2023-03-13T13:49:52.205Z,31.80
2023-03-13T13:52:37.503Z,31.30
2023-03-13T13:55:49.808Z,30.80
2023-03-13T13:58:24.806Z,30.20
2023-03-13T14:00:56.825Z,29.20
2023-03-13T14:03:26.426Z,29.60
2023-03-13T14:05:57.822Z,29.10
2023-03-13T14:08:30.585Z,30.40
2023-03-13T14:11:11.023Z,28.60
2023-03-13T14:13:40.937Z,28.50
2023-03-13T14:16:25.071Z,28.30
2023-03-13T14:18:54.246Z,28.80
2023-03-13T14:21:24.935Z,29.50
2023-03-13T14:23:53.301Z,29.00
2023-03-13T14:26:23.235Z,29.70
2023-03-13T14:28:54.153Z,30.40
2023-03-13T14:31:31.286Z,28.90
2023-03-13T14:34:04.067Z,29.30
2023-03-13T14:36:46.364Z,28.80
2023-03-13T14:39:19.961Z,28.90
2023-03-13T14:41:50.308Z,29.20
2023-03-13T14:44:25.497Z,30.10
2023-03-13T14:46:57.602Z,30.10
2023-03-13T14:49:29.588Z,29.80
2023-03-13T14:52:02.202Z,29.70
2023-03-13T14:54:32.929Z,29.20
2023-03-13T14:57:06.920Z,28.60
2023-03-13T14:59:36.467Z,29.20
2023-03-13T15:02:15.249Z,28.50
2023-03-13T15:04:50.896Z,27.30
2023-03-13T15:07:19.860Z,27.60
2023-03-13T15:09:49.630Z,27.50
2023-03-13T15:12:21.243Z,27.00
2023-03-13T15:14:52.320Z,27.50
2023-03-13T15:17:22.248Z,27.40
2023-03-13T15:19:52.184Z,27.90
2023-03-13T15:22:25.983Z,28.20
2023-03-13T15:25:05.716Z,28.40
2023-03-13T15:27:35.255Z,28.10
2023-03-13T15:30:05.982Z,28.80
2023-03-13T15:32:36.963Z,28.10
2023-03-13T15:35:22.906Z,28.80
2023-03-13T15:37:51.233Z,28.60
2023-03-13T15:40:20.133Z,28.10
2023-03-13T15:42:48.619Z,27.20
2023-03-13T15:45:18.570Z,27.20
2023-03-13T15:47:48.835Z,26.40
2023-03-13T15:50:19.938Z,25.70
2023-03-13T15:52:48.275Z,25.30
2023-03-13T15:55:16.642Z,25.50
2023-03-13T15:57:47.435Z,25.60
2023-03-13T16:00:21.414Z,25.40
2023-03-13T16:02:49.496Z,25.30
2023-03-13T16:05:18.754Z,25.30
2023-03-13T16:07:46.914Z,25.80
2023-03-13T16:10:18.665Z,25.80
2023-03-13T16:12:46.833Z,25.80
2023-03-13T16:15:15.417Z,26.20
2023-03-13T16:17:44.922Z,26.30
2023-03-13T16:20:17.031Z,26.30
2023-03-13T16:22:45.804Z,26.40
2023-03-13T16:25:15.149Z,27.30
2023-03-13T16:27:43.453Z,27.90
2023-03-13T16:30:17.922Z,28.20
2023-03-13T16:32:47.522Z,28.40
2023-03-13T16:35:15.706Z,28.10
2023-03-13T16:37:43.952Z,27.80
2023-03-13T16:40:23.415Z,28.10
2023-03-13T16:42:52.134Z,28.70
2023-03-13T16:45:20.750Z,28.20
2023-03-13T16:47:50.857Z,28.40
2023-03-13T16:50:25.171Z,28.50
2023-03-13T16:52:54.227Z,28.40
2023-03-13T16:55:24.712Z,28.00
2023-03-13T16:57:54.946Z,28.60
2023-03-13T17:00:25.362Z,29.10
2023-03-13T17:02:56.742Z,28.60
2023-03-13T17:05:25.724Z,28.40
2023-03-13T17:07:54.274Z,28.70
2023-03-13T17:10:25.906Z,28.80
2023-03-13T17:12:54.262Z,28.90
2023-03-13T17:15:23.319Z,29.10
2023-03-13T17:17:52.889Z,29.20
2023-03-13T17:20:24.457Z,30.50
2023-03-13T17:22:52.748Z,30.90
2023-03-13T17:25:20.900Z,30.90
2023-03-13T17:27:49.340Z,30.60
2023-03-13T17:30:21.976Z,30.40
2023-03-13T17:32:50.869Z,30.60
2023-03-13T17:35:21.074Z,31.30
2023-03-13T17:37:51.179Z,34.30
2023-03-13T17:40:22.868Z,36.30
2023-03-13T17:42:51.268Z,41.10
2023-03-13T17:45:20.140Z,45.20
2023-03-13T17:47:49.383Z,46.30
2023-03-13T17:50:21.017Z,56.20
2023-03-13T17:52:50.800Z,64.40
2023-03-13T17:55:19.863Z,66.00
2023-03-13T17:57:48.533Z,66.50
2023-03-13T18:00:29.210Z,65.50
2023-03-13T18:02:57.794Z,63.80
2023-03-13T18:05:26.064Z,62.20
2023-03-13T18:07:57.002Z,60.50
2023-03-13T18:10:26.700Z,59.10
2023-03-13T18:12:55.151Z,57.70
2023-03-13T18:15:25.021Z,57.90
2023-03-13T18:17:53.713Z,57.00
2023-03-13T18:20:24.232Z,56.90
2023-03-13T18:22:52.454Z,56.50
2023-03-13T18:25:21.952Z,64.50
2023-03-13T18:27:50.297Z,75.80
2023-03-13T18:30:20.801Z,77.20
2023-03-13T18:32:49.470Z,71.40
2023-03-13T18:35:18.425Z,68.30
2023-03-13T18:37:48.332Z,65.90
2023-03-13T18:40:19.174Z,63.70
2023-03-13T18:42:48.876Z,62.50
2023-03-13T18:45:18.904Z,65.70
2023-03-13T18:47:48.165Z,64.40
2023-03-13T18:50:23.411Z,62.70
2023-03-13T18:52:52.028Z,68.40
2023-03-13T18:55:20.278Z,68.60
2023-03-13T18:57:50.670Z,72.60
2023-03-13T19:00:20.920Z,82.30
2023-03-13T19:02:49.651Z,87.20
2023-03-13T19:05:18.265Z,88.50
2023-03-13T19:07:46.662Z,93.90
2023-03-13T19:10:21.953Z,95.30
2023-03-13T19:12:52.220Z,85.20
2023-03-13T19:15:21.941Z,89.10
2023-03-13T19:17:50.592Z,92.20
2023-03-13T19:20:20.981Z,93.70
2023-03-13T19:22:49.393Z,93.80
2023-03-13T19:25:17.918Z,97.20
2023-03-13T19:27:46.761Z,93.60
2023-03-13T19:30:22.547Z,87.60
2023-03-13T19:32:50.957Z,85.90
2023-03-13T19:35:22.351Z,82.20
2023-03-13T19:37:50.837Z,80.30
2023-03-13T19:40:21.378Z,78.20
2023-03-13T19:42:49.546Z,78.80
2023-03-13T19:45:20.512Z,76.60
2023-03-13T19:47:49.633Z,77.80
2023-03-13T19:50:20.130Z,73.70
2023-03-13T19:52:48.340Z,70.80
2023-03-13T19:55:16.925Z,70.90
2023-03-13T19:57:45.482Z,70.10
2023-03-13T20:00:22.438Z,69.80
2023-03-13T20:02:52.188Z,69.90
2023-03-13T20:05:20.448Z,69.40
2023-03-13T20:07:48.828Z,70.20
2023-03-13T20:10:17.122Z,70.10
2023-03-13T20:12:45.413Z,71.30
2023-03-13T20:15:14.161Z,71.30
2023-03-13T20:17:43.739Z,70.90
2023-03-13T20:20:13.784Z,71.90
2023-03-13T20:22:42.103Z,71.80
2023-03-13T20:25:10.828Z,73.00
2023-03-13T20:27:39.121Z,72.80
2023-03-13T20:30:08.993Z,72.10
2023-03-13T20:32:41.213Z,72.60
2023-03-13T20:35:15.748Z,72.50
2023-03-13T20:37:44.001Z,73.00
2023-03-13T20:40:13.349Z,72.80
2023-03-13T20:42:41.548Z,73.20
2023-03-13T20:45:10.822Z,73.60
2023-03-13T20:47:38.981Z,74.90
2023-03-13T20:50:08.217Z,74.40
2023-03-13T20:52:37.746Z,74.50
2023-03-13T20:55:06.617Z,74.60
2023-03-13T20:57:36.537Z,75.20
2023-03-13T21:00:06.872Z,74.90
2023-03-13T21:02:35.134Z,74.20
2023-03-13T21:05:03.351Z,73.90
2023-03-13T21:07:32.223Z,74.10
2023-03-13T21:10:01.837Z,75.70
2023-03-13T21:12:30.204Z,76.90
2023-03-13T21:14:58.873Z,77.90
2023-03-13T21:17:27.148Z,78.60
2023-03-13T21:19:55.324Z,80.10
2023-03-13T21:22:24.401Z,81.30
2023-03-13T21:24:52.629Z,82.20
2023-03-13T21:27:22.393Z,81.90
2023-03-13T21:29:50.965Z,82.20
2023-03-13T21:32:19.570Z,82.20
2023-03-13T21:34:47.813Z,83.00
2023-03-13T21:37:17.689Z,84.60
2023-03-13T21:39:46.009Z,85.90
2023-03-13T21:42:14.585Z,84.70
2023-03-13T21:44:44.625Z,84.20
2023-03-13T21:47:13.235Z,83.70
2023-03-13T21:49:41.371Z,83.30
2023-03-13T21:52:09.512Z,82.80
2023-03-13T21:54:37.625Z,80.90
2023-03-13T21:57:06.001Z,82.50
2023-03-13T21:59:34.123Z,82.00
2023-03-13T22:02:03.958Z,82.10
2023-03-13T22:04:32.092Z,81.60
2023-03-13T22:07:00.266Z,82.50
2023-03-13T22:09:28.469Z,82.30
2023-03-13T22:11:56.593Z,82.40
2023-03-13T22:14:26.272Z,82.10
2023-03-13T22:16:54.450Z,82.00
2023-03-13T22:19:23.967Z,81.40
2023-03-13T22:21:52.109Z,81.80
2023-03-13T22:24:20.292Z,83.00
2023-03-13T22:26:48.313Z,83.10
2023-03-13T22:29:16.475Z,83.50
2023-03-13T22:31:44.647Z,82.90
2023-03-13T22:34:12.753Z,82.90
2023-03-13T22:36:42.555Z,83.40
2023-03-13T22:39:10.701Z,82.60
2023-03-13T22:41:38.897Z,82.10
2023-03-13T22:44:07.592Z,81.80
2023-03-13T22:46:36.045Z,80.80
2023-03-13T22:49:04.756Z,81.40
2023-03-13T22:51:33.225Z,79.30
2023-03-13T22:54:02.893Z,79.80
2023-03-13T22:56:30.960Z,79.40
2023-03-13T22:58:59.092Z,79.20
2023-03-13T23:01:27.479Z,78.50
2023-03-13T23:03:55.691Z,79.70
2023-03-13T23:06:26.235Z,80.00
2023-03-13T23:08:54.692Z,78.80
2023-03-13T23:11:24.576Z,79.60
2023-03-13T23:13:52.826Z,79.60
2023-03-13T23:16:20.983Z,79.30
2023-03-13T23:18:49.545Z,80.30
2023-03-13T23:21:17.866Z,80.20
2023-03-13T23:23:47.121Z,80.50
2023-03-13T23:26:17.077Z,81.00
2023-03-13T23:28:46.642Z,80.80
2023-03-13T23:31:17.174Z,81.50
2023-03-13T23:33:45.886Z,81.90
2023-03-13T23:36:16.851Z,82.50
2023-03-13T23:38:45.518Z,83.00
2023-03-13T23:41:15.375Z,83.50
2023-03-13T23:43:43.701Z,83.40
2023-03-13T23:46:18.602Z,83.30
2023-03-13T23:48:46.805Z,82.90
2023-03-13T23:51:15.214Z,83.00
2023-03-13T23:53:44.488Z,82.90
2023-03-13T23:56:13.539Z,83.10
2023-03-13T23:58:42.038Z,82.90
